createdAt,value
2022-10-12T00:00:47.896Z,0
2022-10-12T00:02:49.147Z,0
2022-10-12T00:04:50.770Z,0
2022-10-12T00:06:52.256Z,0
2022-10-12T00:08:53.392Z,0
2022-10-12T00:10:54.436Z,0
2022-10-12T00:12:55.777Z,0
2022-10-12T00:14:56.774Z,0
2022-10-12T00:16:58.559Z,0
2022-10-12T00:18:59.624Z,0
2022-10-12T00:23:02.801Z,0
2022-10-12T00:25:04.467Z,0
2022-10-12T00:27:05.689Z,0
2022-10-12T00:29:07.293Z,4.212
2022-10-12T00:33:09.759Z,3.369
2022-10-12T00:35:11.360Z,1.404
2022-10-12T00:37:13.098Z,0
2022-10-12T00:39:15.035Z,0
2022-10-12T00:43:18.643Z,1.544
2022-10-12T00:45:20.183Z,0
2022-10-12T00:47:21.790Z,0
2022-10-12T00:49:23.654Z,0
2022-10-12T00:53:26.918Z,0
2022-10-12T00:55:28.021Z,0
2022-10-12T00:57:29.197Z,0
2022-10-12T00:59:30.543Z,0
2022-10-12T01:01:31.665Z,0
2022-10-12T01:03:32.882Z,0
2022-10-12T01:05:34.099Z,0
2022-10-12T01:07:35.613Z,0
2022-10-12T01:09:37.021Z,0
2022-10-12T01:11:38.195Z,0
2022-10-12T01:13:39.500Z,0
2022-10-12T01:15:40.849Z,0
2022-10-12T01:17:41.831Z,0
2022-10-12T01:19:42.826Z,0
2022-10-12T01:21:44.693Z,0
2022-10-12T01:23:46.335Z,0
2022-10-12T01:25:48.234Z,0
2022-10-12T01:27:49.805Z,0
2022-10-12T01:29:51.446Z,0
2022-10-12T01:31:52.719Z,0
2022-10-12T01:33:54.201Z,0
2022-10-12T01:35:55.490Z,0
2022-10-12T01:37:57.297Z,0
2022-10-12T01:39:59.017Z,0
2022-10-12T01:42:00.087Z,0
2022-10-12T01:44:01.136Z,0
2022-10-12T01:46:02.251Z,0
2022-10-12T01:48:04.050Z,0
2022-10-12T01:50:05.747Z,0
2022-10-12T01:52:06.815Z,0.421
2022-10-12T01:54:08.433Z,0
2022-10-12T01:56:10.129Z,0.561
2022-10-12T01:58:11.771Z,0
2022-10-12T02:00:12.813Z,0
2022-10-12T02:02:14.771Z,0
2022-10-12T02:04:16.550Z,0
2022-10-12T02:06:17.531Z,0
2022-10-12T02:08:19.357Z,0
2022-10-12T02:10:20.811Z,0
2022-10-12T02:12:22.217Z,0
2022-10-12T02:14:23.489Z,0.14
2022-10-12T02:16:24.674Z,0
2022-10-12T02:18:26.103Z,0
2022-10-12T02:20:27.373Z,0.28
2022-10-12T02:24:29.863Z,0
2022-10-12T02:26:31.330Z,0.842
2022-10-12T02:28:33.138Z,0
2022-10-12T02:30:34.634Z,0
2022-10-12T02:34:37.139Z,0
2022-10-12T02:36:38.820Z,0
2022-10-12T02:38:40.654Z,0
2022-10-12T02:40:42.488Z,0
2022-10-12T02:43:08.586Z,0
2022-10-12T02:44:45.485Z,0
2022-10-12T02:46:46.774Z,0
2022-10-12T02:48:48.663Z,0
2022-10-12T02:50:49.745Z,0
2022-10-12T02:52:51.378Z,0
2022-10-12T02:54:52.448Z,0
2022-10-12T02:56:54.262Z,0
2022-10-12T02:58:55.574Z,0
2022-10-12T03:00:56.861Z,0
2022-10-12T03:02:58.210Z,0
2022-10-12T03:07:01.223Z,0
2022-10-12T03:09:03.122Z,0
2022-10-12T03:11:04.470Z,0
2022-10-12T03:13:06.291Z,0
2022-10-12T03:17:09.807Z,0
2022-10-12T03:19:10.834Z,0
2022-10-12T03:21:12.127Z,0
2022-10-12T03:22:04.035Z,0
2022-10-12T03:24:05.691Z,0
2022-10-12T03:26:06.941Z,0
2022-10-12T03:28:08.949Z,0
2022-10-12T03:30:10.833Z,0
2022-10-12T03:32:12.799Z,0
2022-10-12T03:34:14.252Z,0
2022-10-12T03:36:16.144Z,0
2022-10-12T03:38:18.052Z,0
2022-10-12T03:40:19.937Z,0
2022-10-12T03:42:21.236Z,0
2022-10-12T03:44:23.144Z,0
2022-10-12T03:46:25.107Z,0
2022-10-12T03:48:26.337Z,0
2022-10-12T03:50:27.831Z,0
2022-10-12T03:52:28.888Z,0
2022-10-12T03:54:30.653Z,0
2022-10-12T03:56:31.992Z,0
2022-10-12T03:58:33.402Z,0
2022-10-12T04:00:34.459Z,0
2022-10-12T04:02:35.551Z,0
2022-10-12T04:04:37.183Z,0
2022-10-12T04:06:38.986Z,0
2022-10-12T04:08:40.877Z,0
2022-10-12T04:10:42.792Z,0
2022-10-12T04:12:44.280Z,0.14
2022-10-12T04:14:45.594Z,1.684
2022-10-12T04:16:46.715Z,0.842
2022-10-12T04:18:47.911Z,0.421
2022-10-12T04:20:49.095Z,0
2022-10-12T04:22:50.146Z,0
2022-10-12T04:24:51.919Z,0
2022-10-12T04:26:53.226Z,0
2022-10-12T04:28:55.189Z,0
2022-10-12T04:30:56.616Z,0
2022-10-12T04:32:58.461Z,0
2022-10-12T04:35:00.041Z,0
2022-10-12T04:37:00.999Z,0
2022-10-12T04:39:02.678Z,0
2022-10-12T04:41:04.222Z,0
2022-10-12T04:43:05.546Z,0
2022-10-12T04:45:07.029Z,0
2022-10-12T04:47:08.263Z,0
2022-10-12T04:49:10.184Z,0
2022-10-12T04:51:11.962Z,0
2022-10-12T04:53:13.905Z,0
2022-10-12T04:55:15.102Z,0
2022-10-12T04:57:16.158Z,0
2022-10-12T04:59:17.881Z,0
2022-10-12T05:01:19.616Z,0
2022-10-12T05:03:21.498Z,0
2022-10-12T05:05:22.868Z,0
2022-10-12T05:07:24.238Z,0
2022-10-12T05:09:25.611Z,0
2022-10-12T05:11:26.906Z,0
2022-10-12T05:13:28.245Z,0
2022-10-12T05:15:29.332Z,0
2022-10-12T05:17:30.459Z,0
2022-10-12T05:19:32.022Z,0
2022-10-12T05:21:33.856Z,0
2022-10-12T05:23:35.651Z,0
2022-10-12T05:25:36.838Z,0
2022-10-12T05:27:38.823Z,0
2022-10-12T05:29:39.757Z,0
2022-10-12T05:31:41.567Z,0
2022-10-12T05:33:43.421Z,0
2022-10-12T05:35:47.756Z,0
2022-10-12T05:37:46.458Z,0
2022-10-12T05:41:49.698Z,0
2022-10-12T05:43:51.220Z,0
2022-10-12T05:45:52.752Z,0
2022-10-12T05:47:54.386Z,0
2022-10-12T05:51:57.372Z,0
2022-10-12T05:53:59.321Z,0
2022-10-12T05:56:00.728Z,0
2022-10-12T05:58:02.549Z,0
2022-10-12T06:00:03.528Z,0
2022-10-12T06:02:05.507Z,0
2022-10-12T06:04:07.237Z,0
2022-10-12T06:06:08.626Z,0
2022-10-12T06:08:10.219Z,0
2022-10-12T06:10:11.793Z,0
2022-10-12T06:12:12.816Z,0
2022-10-12T06:14:14.550Z,0
2022-10-12T06:16:15.737Z,0
2022-10-12T06:18:17.648Z,0
2022-10-12T06:20:19.126Z,0
2022-10-12T06:24:21.962Z,0
2022-10-12T06:26:23.514Z,0
2022-10-12T06:28:24.911Z,0
2022-10-12T06:30:26.217Z,0
2022-10-12T06:34:28.577Z,0
2022-10-12T06:36:29.643Z,0
2022-10-12T06:38:31.498Z,0
2022-10-12T06:40:32.657Z,0
2022-10-12T06:42:34.031Z,0
2022-10-12T06:44:35.200Z,0
2022-10-12T06:46:37.113Z,0
2022-10-12T06:48:38.997Z,0
2022-10-12T06:50:40.579Z,0
2022-10-12T06:52:41.569Z,0
2022-10-12T06:54:42.891Z,0
2022-10-12T06:56:44.307Z,0
2022-10-12T06:58:46.225Z,0
2022-10-12T07:00:48.004Z,0
2022-10-12T07:02:49.826Z,0
2022-10-12T07:06:52.568Z,0
2022-10-12T07:08:54.039Z,0
2022-10-12T07:10:59.052Z,0
2022-10-12T07:12:57.265Z,0
2022-10-12T07:14:58.892Z,0
2022-10-12T07:17:00.105Z,0
2022-10-12T07:19:01.996Z,0
2022-10-12T07:21:03.316Z,0
2022-10-12T07:23:04.946Z,0
2022-10-12T07:25:05.927Z,0
2022-10-12T07:27:07.464Z,0.28
2022-10-12T07:29:08.878Z,0
2022-10-12T07:31:10.701Z,0
2022-10-12T07:33:12.217Z,0
2022-10-12T07:35:13.158Z,0
2022-10-12T07:37:14.667Z,0.561
2022-10-12T07:39:15.891Z,0.702
2022-10-12T07:41:17.769Z,0
2022-10-12T07:43:18.800Z,0
2022-10-12T07:47:22.512Z,0
2022-10-12T07:49:23.787Z,0
2022-10-12T07:51:25.529Z,0
2022-10-12T07:55:28.949Z,0
2022-10-12T07:57:30.168Z,2.386
2022-10-12T07:59:31.616Z,0.982
2022-10-12T08:01:32.801Z,0
2022-10-12T08:03:33.951Z,0.702
2022-10-12T08:05:35.394Z,0
2022-10-12T08:07:37.090Z,0.702
2022-10-12T08:09:38.220Z,0
2022-10-12T08:11:39.624Z,0
2022-10-12T08:13:40.742Z,0.561
2022-10-12T08:15:41.875Z,0
2022-10-12T08:17:43.737Z,0.842
2022-10-12T08:19:44.868Z,0.982
2022-10-12T08:21:45.826Z,2.246
2022-10-12T08:23:48.634Z,2.246
2022-10-12T08:25:49.014Z,1.825
2022-10-12T08:27:50.317Z,3.51
2022-10-12T08:29:51.941Z,1.404
2022-10-12T08:31:53.348Z,0.421
2022-10-12T08:33:54.981Z,0.842
2022-10-12T08:35:56.578Z,0.421
2022-10-12T08:37:57.662Z,3.51
2022-10-12T08:40:02.982Z,0.561
2022-10-12T08:42:00.472Z,1.404
2022-10-12T08:44:01.435Z,2.106
2022-10-12T08:48:03.895Z,2.106
2022-10-12T08:50:06.218Z,1.825
2022-10-12T08:52:08.002Z,0.842
2022-10-12T08:54:09.345Z,0
2022-10-12T08:58:12.824Z,0.28
2022-10-12T09:00:14.639Z,1.263
2022-10-12T09:02:15.665Z,2.106
2022-10-12T09:04:16.778Z,0
2022-10-12T09:06:17.686Z,0.421
2022-10-12T09:08:18.817Z,1.404
2022-10-12T09:10:19.663Z,1.684
2022-10-12T09:12:21.242Z,2.386
2022-10-12T09:14:22.242Z,0.982
2022-10-12T09:16:23.925Z,3.229
2022-10-12T09:18:25.015Z,1.404
2022-10-12T09:20:26.269Z,2.106
2022-10-12T09:22:27.532Z,3.65
2022-10-12T09:24:28.945Z,0.421
2022-10-12T09:26:30.001Z,1.544
2022-10-12T09:30:32.838Z,1.825
2022-10-12T09:32:34.332Z,0
2022-10-12T09:34:35.734Z,1.825
2022-10-12T09:36:36.627Z,0.702
2022-10-12T09:40:39.634Z,0
2022-10-12T09:42:40.489Z,0.982
2022-10-12T09:44:41.565Z,1.404
2022-10-12T09:46:42.410Z,0.982
2022-10-12T09:48:47.143Z,3.51
2022-10-12T09:50:44.372Z,2.246
2022-10-12T09:52:46.001Z,1.684
2022-10-12T09:54:47.698Z,0.982
2022-10-12T09:56:49.033Z,0.702
2022-10-12T09:58:50.791Z,2.808
2022-10-12T10:00:51.879Z,2.386
2022-10-12T10:02:53.687Z,0.982
2022-10-12T10:04:54.971Z,0
2022-10-12T10:06:56.063Z,0
2022-10-12T10:07:39.776Z,0
2022-10-12T10:09:41.264Z,1.684
2022-10-12T10:11:42.788Z,1.544
2022-10-12T10:13:44.755Z,3.088
2022-10-12T10:15:45.880Z,2.246
2022-10-12T10:17:47.776Z,4.352
2022-10-12T10:19:48.665Z,4.071
2022-10-12T10:21:49.770Z,3.931
2022-10-12T10:23:51.366Z,2.948
2022-10-12T10:25:52.844Z,0.982
2022-10-12T10:27:54.210Z,1.404
2022-10-12T10:29:59.771Z,3.088
2022-10-12T10:31:56.745Z,0.982
2022-10-12T10:33:57.945Z,4.071
2022-10-12T10:35:58.847Z,3.65
2022-10-12T10:37:59.797Z,2.106
2022-10-12T10:40:01.071Z,1.404
2022-10-12T10:42:02.223Z,4.071
2022-10-12T10:44:03.928Z,2.808
2022-10-12T10:46:05.149Z,3.088
2022-10-12T10:48:06.031Z,4.633
2022-10-12T10:50:07.505Z,3.229
2022-10-12T10:52:08.386Z,4.492
2022-10-12T10:54:09.935Z,4.352
2022-10-12T10:56:11.519Z,3.088
2022-10-12T10:58:13.202Z,3.65
2022-10-12T11:00:37.090Z,2.386
2022-10-12T11:02:16.394Z,2.246
2022-10-12T11:06:18.775Z,2.808
2022-10-12T11:08:19.766Z,2.246
2022-10-12T11:10:20.983Z,2.386
2022-10-12T11:12:21.983Z,2.106
2022-10-12T11:16:24.710Z,3.229
2022-10-12T11:18:26.315Z,3.65
2022-10-12T11:20:27.505Z,4.071
2022-10-12T11:22:29.003Z,1.263
2022-10-12T11:24:30.485Z,0.842
2022-10-12T11:28:32.681Z,2.527
2022-10-12T11:30:33.921Z,2.527
2022-10-12T11:32:34.762Z,0.28
2022-10-12T11:34:36.153Z,4.773
2022-10-12T11:36:37.692Z,1.263
2022-10-12T11:38:39.243Z,1.965
2022-10-12T11:41:00.515Z,1.544
2022-10-12T11:42:43.519Z,2.246
2022-10-12T11:44:43.824Z,1.123
2022-10-12T11:46:45.598Z,3.79
2022-10-12T11:48:46.603Z,0.561
2022-10-12T11:50:47.627Z,2.106
2022-10-12T11:52:49.347Z,2.948
2022-10-12T11:54:50.921Z,2.386
2022-10-12T11:59:00.831Z,1.404
2022-10-12T12:00:55.154Z,2.527
2022-10-12T12:02:56.463Z,2.667
2022-10-12T12:04:58.155Z,2.386
2022-10-12T12:06:59.518Z,1.684
2022-10-12T12:09:01.109Z,0.421
2022-10-12T12:11:02.709Z,1.123
2022-10-12T12:13:04.327Z,0
2022-10-12T12:15:05.759Z,2.808
2022-10-12T12:17:06.762Z,0
2022-10-12T12:19:08.054Z,2.386
2022-10-12T12:21:09.811Z,3.931
2022-10-12T12:23:11.396Z,2.667
2022-10-12T12:25:12.385Z,2.948
2022-10-12T12:27:13.961Z,3.65
2022-10-12T12:29:15.444Z,5.335
2022-10-12T12:31:17.208Z,2.948
2022-10-12T12:33:18.772Z,2.386
2022-10-12T12:35:19.662Z,4.914
2022-10-12T12:37:20.697Z,4.212
2022-10-12T12:39:22.010Z,3.088
2022-10-12T12:41:23.039Z,0.14
2022-10-12T12:43:24.312Z,3.51
2022-10-12T12:45:25.151Z,0
2022-10-12T12:47:44.346Z,0.28
2022-10-12T12:49:27.062Z,4.633
2022-10-12T12:51:28.169Z,2.948
2022-10-12T12:53:29.474Z,4.071
2022-10-12T12:57:31.321Z,2.948
2022-10-12T12:59:33.020Z,3.088
2022-10-12T13:01:34.072Z,0.842
2022-10-12T13:03:35.136Z,3.51
2022-10-12T13:05:36.196Z,3.229
2022-10-12T13:09:39.041Z,1.544
2022-10-12T13:11:40.690Z,3.51
2022-10-12T13:13:41.808Z,3.369
2022-10-12T13:15:42.686Z,1.684
2022-10-12T13:17:44.631Z,3.931
2022-10-12T13:19:45.215Z,3.931
2022-10-12T13:21:46.949Z,3.369
2022-10-12T13:23:48.355Z,2.808
2022-10-12T13:25:51.538Z,1.263
2022-10-12T13:29:52.497Z,3.79
2022-10-12T13:31:54.218Z,1.825
2022-10-12T13:33:55.720Z,2.808
2022-10-12T13:35:57.193Z,5.616
2022-10-12T13:39:59.752Z,3.79
2022-10-12T13:42:00.799Z,1.263
2022-10-12T13:44:02.068Z,3.229
2022-10-12T13:46:03.755Z,4.492
2022-10-12T13:48:05.429Z,0.14
2022-10-12T13:50:06.802Z,1.404
2022-10-12T13:52:08.281Z,1.544
2022-10-12T13:54:10.003Z,3.51
2022-10-12T13:56:11.502Z,1.263
2022-10-12T13:58:13.144Z,2.106
2022-10-12T14:00:14.365Z,1.263
2022-10-12T14:02:16.043Z,1.123
2022-10-12T14:04:17.491Z,0.561
2022-10-12T14:06:18.600Z,2.106
2022-10-12T14:08:20.382Z,0.702
2022-10-12T14:10:21.910Z,0.14
2022-10-12T14:12:25.402Z,2.808
2022-10-12T14:14:24.149Z,1.404
2022-10-12T14:16:25.940Z,0.561
2022-10-12T14:18:26.951Z,0.28
2022-10-12T14:20:28.022Z,1.965
2022-10-12T14:22:29.564Z,0.14
2022-10-12T14:24:30.490Z,0
2022-10-12T14:26:31.549Z,0
2022-10-12T14:28:32.694Z,0
2022-10-12T14:30:34.016Z,1.404
2022-10-12T14:32:35.181Z,1.263
2022-10-12T14:34:36.771Z,1.263
2022-10-12T14:36:38.496Z,1.263
2022-10-12T14:38:39.369Z,0
2022-10-12T14:40:40.543Z,0.561
2022-10-12T14:42:41.732Z,1.544
2022-10-12T14:44:42.693Z,1.544
2022-10-12T14:46:44.238Z,1.263
2022-10-12T14:48:45.944Z,0
2022-10-12T14:50:47.172Z,0
2022-10-12T14:52:48.774Z,1.825
2022-10-12T14:54:49.915Z,0.421
2022-10-12T14:56:51.362Z,0
2022-10-12T14:58:53.114Z,0
2022-10-12T15:00:54.391Z,0
2022-10-12T15:02:55.469Z,0
2022-10-12T15:04:57.198Z,0
2022-10-12T15:06:58.318Z,0
2022-10-12T15:11:01.129Z,0
2022-10-12T15:13:02.315Z,0
2022-10-12T15:15:03.214Z,0
2022-10-12T15:17:04.607Z,0
2022-10-12T15:21:07.120Z,0
2022-10-12T15:23:08.312Z,0
2022-10-12T15:25:09.748Z,0
2022-10-12T15:27:10.916Z,0.14
2022-10-12T15:29:11.830Z,0
2022-10-12T15:33:14.361Z,0
2022-10-12T15:35:16.092Z,0.561
2022-10-12T15:37:17.917Z,0
2022-10-12T15:39:19.326Z,0.14
2022-10-12T15:41:21.026Z,0
2022-10-12T15:43:21.905Z,0
2022-10-12T15:45:23.702Z,0.842
2022-10-12T15:47:25.185Z,1.404
2022-10-12T15:49:26.960Z,0
2022-10-12T15:51:28.244Z,1.123
2022-10-12T15:53:29.702Z,0
2022-10-12T15:55:30.830Z,2.106
2022-10-12T15:57:31.758Z,1.404
2022-10-12T15:59:32.778Z,0.421
2022-10-12T16:03:36.233Z,2.527
2022-10-12T16:05:37.196Z,2.386
2022-10-12T16:07:38.617Z,2.948
2022-10-12T16:09:40.195Z,3.229
2022-10-12T16:11:41.615Z,1.263
2022-10-12T16:13:46.991Z,1.684
2022-10-12T16:15:43.922Z,1.123
2022-10-12T16:17:45.166Z,1.404
2022-10-12T16:19:46.709Z,0
2022-10-12T16:21:47.965Z,0.14
2022-10-12T16:23:49.000Z,0.14
2022-10-12T16:25:50.750Z,0
2022-10-12T16:27:52.071Z,0
2022-10-12T16:29:53.842Z,0
2022-10-12T16:31:55.365Z,0
2022-10-12T16:33:56.695Z,0
2022-10-12T16:35:58.363Z,0
2022-10-12T16:37:59.969Z,0
2022-10-12T16:40:01.131Z,1.263
2022-10-12T16:42:02.060Z,1.965
2022-10-12T16:44:03.301Z,0.14
2022-10-12T16:46:04.265Z,2.246
2022-10-12T16:48:05.447Z,0.702
2022-10-12T16:50:06.432Z,1.544
2022-10-12T16:52:08.256Z,2.106
2022-10-12T16:52:52.058Z,1.825
2022-10-12T16:54:53.402Z,0.842
2022-10-12T16:56:55.206Z,1.263
2022-10-12T16:58:56.928Z,0.702
2022-10-12T17:00:58.523Z,0.702
2022-10-12T17:03:00.283Z,1.544
2022-10-12T17:05:02.177Z,0.28
2022-10-12T17:07:04.041Z,0.421
2022-10-12T17:09:05.883Z,0.14
2022-10-12T17:11:07.437Z,0.702
2022-10-12T17:13:09.050Z,1.123
2022-10-12T17:15:10.345Z,2.246
2022-10-12T17:17:11.530Z,1.404
2022-10-12T17:19:12.658Z,0.421
2022-10-12T17:21:13.681Z,0.561
2022-10-12T17:23:15.110Z,0
2022-10-12T17:25:16.764Z,0
2022-10-12T17:29:20.309Z,1.825
2022-10-12T17:31:21.994Z,0.421
2022-10-12T17:33:23.213Z,0.702
2022-10-12T17:35:24.187Z,0.28
2022-10-12T17:39:26.669Z,2.948
2022-10-12T17:41:27.884Z,0.421
2022-10-12T17:43:28.985Z,0.702
2022-10-12T17:45:30.797Z,0
2022-10-12T17:47:31.859Z,0
2022-10-12T17:51:34.642Z,0
2022-10-12T17:53:35.840Z,0
2022-10-12T17:55:47.962Z,0
2022-10-12T17:57:38.219Z,0.982
2022-10-12T17:59:39.921Z,0
2022-10-12T18:01:41.067Z,0.28
2022-10-12T18:03:42.293Z,0
2022-10-12T18:05:43.861Z,0
2022-10-12T18:07:45.581Z,0
2022-10-12T18:11:48.546Z,0
2022-10-12T18:13:49.769Z,0
2022-10-12T18:15:50.985Z,0
2022-10-12T18:17:52.356Z,0
2022-10-12T18:19:53.859Z,0
2022-10-12T18:21:55.644Z,0
2022-10-12T18:23:56.981Z,0
2022-10-12T18:25:58.712Z,0
2022-10-12T18:28:00.435Z,0
2022-10-12T18:30:01.748Z,0
2022-10-12T18:32:03.454Z,0
2022-10-12T18:34:04.740Z,0
2022-10-12T18:36:06.386Z,0
2022-10-12T18:38:07.951Z,0
2022-10-12T18:40:09.740Z,0
2022-10-12T18:42:11.584Z,0
2022-10-12T18:44:12.784Z,0
2022-10-12T18:46:14.582Z,0
2022-10-12T18:48:15.926Z,0
2022-10-12T18:50:17.221Z,0
2022-10-12T18:52:18.869Z,0
2022-10-12T18:54:20.395Z,0
2022-10-12T18:56:21.398Z,0
2022-10-12T18:58:22.696Z,0
2022-10-12T19:00:24.408Z,0
2022-10-12T19:02:26.197Z,0
2022-10-12T19:04:27.571Z,0
2022-10-12T19:06:28.682Z,0
2022-10-12T19:08:29.940Z,0
2022-10-12T19:10:31.063Z,0
2022-10-12T19:12:32.293Z,0
2022-10-12T19:14:33.445Z,0
2022-10-12T19:16:35.360Z,0
2022-10-12T19:18:36.388Z,0
2022-10-12T19:20:38.163Z,0
2022-10-12T19:22:39.400Z,0
2022-10-12T19:24:40.432Z,0
2022-10-12T19:26:41.494Z,0
2022-10-12T19:28:43.063Z,0
2022-10-12T19:30:44.741Z,0
2022-10-12T19:32:45.906Z,0
2022-10-12T19:34:47.470Z,0
2022-10-12T19:36:48.492Z,0
2022-10-12T19:38:50.166Z,0
2022-10-12T19:40:51.816Z,0
2022-10-12T19:42:53.353Z,0
2022-10-12T19:44:55.275Z,0
2022-10-12T19:46:56.343Z,0
2022-10-12T19:50:59.217Z,0
2022-10-12T19:53:00.441Z,0
2022-10-12T19:55:02.053Z,0
2022-10-12T19:57:03.621Z,0
2022-10-12T19:59:04.546Z,0
2022-10-12T20:03:07.403Z,0
2022-10-12T20:05:08.387Z,0
2022-10-12T20:07:09.592Z,0
2022-10-12T20:09:11.384Z,0
2022-10-12T20:11:17.078Z,0
2022-10-12T20:13:14.231Z,0
2022-10-12T20:15:16.068Z,0
2022-10-12T20:17:17.677Z,0
2022-10-12T20:19:19.334Z,0
2022-10-12T20:21:20.966Z,0
2022-10-12T20:25:24.104Z,0
2022-10-12T20:27:25.747Z,0
2022-10-12T20:29:27.650Z,0
2022-10-12T20:31:29.566Z,0
2022-10-12T20:35:32.054Z,0
2022-10-12T20:37:33.633Z,0
2022-10-12T20:39:34.980Z,0
2022-10-12T20:41:36.078Z,0
2022-10-12T20:45:38.814Z,0
2022-10-12T20:47:40.161Z,0
2022-10-12T20:49:41.209Z,0
2022-10-12T20:51:42.818Z,0.561
2022-10-12T20:53:44.344Z,0.421
2022-10-12T20:55:45.591Z,0
2022-10-12T20:57:46.995Z,0
2022-10-12T20:59:48.580Z,0
2022-10-12T21:01:49.647Z,0
2022-10-12T21:03:51.198Z,0
2022-10-12T21:05:52.411Z,0
2022-10-12T21:07:53.339Z,0
2022-10-12T21:09:54.320Z,0
2022-10-12T21:11:55.332Z,0
2022-10-12T21:13:57.314Z,0
2022-10-12T21:15:58.998Z,0
2022-10-12T21:18:00.288Z,0
2022-10-12T21:20:02.182Z,0
2022-10-12T21:22:03.445Z,0
2022-10-12T21:24:04.647Z,0
2022-10-12T21:26:05.909Z,0
2022-10-12T21:28:07.225Z,0
2022-10-12T21:30:08.281Z,0
2022-10-12T21:32:09.814Z,0
2022-10-12T21:34:11.674Z,0
2022-10-12T21:36:13.526Z,0
2022-10-12T21:38:15.318Z,0
2022-10-12T21:40:16.621Z,0
2022-10-12T21:42:18.686Z,0
2022-10-12T21:44:19.703Z,0
2022-10-12T21:46:20.908Z,0
2022-10-12T21:48:22.268Z,0
2022-10-12T21:50:23.545Z,0
2022-10-12T21:52:25.251Z,0
2022-10-12T21:54:27.132Z,0
2022-10-12T21:56:28.907Z,0
2022-10-12T21:58:30.690Z,0
2022-10-12T22:00:32.522Z,0
2022-10-12T22:02:33.570Z,0
2022-10-12T22:04:34.751Z,0
2022-10-12T22:06:35.934Z,0
2022-10-12T22:08:37.668Z,0.842
2022-10-12T22:10:39.071Z,0
2022-10-12T22:12:40.580Z,0.14
2022-10-12T22:16:43.277Z,0
2022-10-12T22:18:44.425Z,0
2022-10-12T22:20:46.108Z,0
2022-10-12T22:22:47.067Z,0
2022-10-12T22:28:51.862Z,0
2022-10-12T22:30:53.286Z,0.28
2022-10-12T22:32:55.256Z,0
2022-10-12T22:34:56.668Z,0.28
2022-10-12T22:36:57.827Z,0
2022-10-12T22:38:59.487Z,0
2022-10-12T22:41:01.014Z,0
2022-10-12T22:43:02.789Z,0
2022-10-12T22:45:04.572Z,0
2022-10-12T22:49:07.810Z,0
2022-10-12T22:51:08.885Z,0
2022-10-12T22:53:10.761Z,0
2022-10-12T22:55:12.552Z,0
2022-10-12T22:57:14.391Z,0
2022-10-12T22:59:16.062Z,0
2022-10-12T23:01:17.648Z,0
2022-10-12T23:03:19.373Z,0
2022-10-12T23:05:20.786Z,0
2022-10-12T23:07:21.800Z,0
2022-10-12T23:09:23.700Z,0.14
2022-10-12T23:11:25.104Z,0
2022-10-12T23:13:26.649Z,0
2022-10-12T23:15:28.541Z,0
2022-10-12T23:17:29.956Z,0
2022-10-12T23:19:31.507Z,0
2022-10-12T23:21:33.225Z,0
2022-10-12T23:23:34.658Z,0
2022-10-12T23:25:35.746Z,0
2022-10-12T23:27:37.239Z,0
2022-10-12T23:31:39.584Z,0
2022-10-12T23:33:41.492Z,0
2022-10-12T23:35:43.196Z,0
2022-10-12T23:37:44.754Z,0
2022-10-12T23:38:28.654Z,0
2022-10-12T23:40:30.310Z,0
2022-10-12T23:42:32.019Z,0
2022-10-12T23:44:33.146Z,0
2022-10-12T23:48:36.024Z,0
2022-10-12T23:50:37.922Z,0
2022-10-12T23:52:39.793Z,0
2022-10-12T23:54:40.905Z,0
2022-10-12T23:56:42.116Z,0
2022-10-12T23:58:43.261Z,0
